x

La Have Bank (44150) Wave Buoy

9:00am - Mon 23rd Oct 2017 All times are ADT. -3 hours from GMT.

  • Sig Wave height 2.3ft
  • Peak Period 9s
  • Wind
    13mph, 16mph gusts
  • Sea Temp 67°f
  • Air Temp 61°f
  • Sea Pressure 1031.5mb
  • La Have Bank
  • La Have Bank

More Historic Weather Station data

Upgrade to MSW Pro to gain access to the past 30 days of data for over 8000 Wavebouys and Weather Stations around the globe.

Join

Comparision Forecast

View Surf forecast
   
Mon 10/23 9:00am 2.5ft 9s 13 16 mph 1031.5mb 67f 61f
8:00am 2.5ft  -  13 16 mph 1031.1mb 67f 60f
7:00am 2.5ft 10s 11 16 mph 1031.6mb 67f 59f
6:00am 2.5ft 10s 11 13 mph 1031.4mb 67f 59f
5:00am 3ft 9s 9 13 mph 1031.8mb 67f 58f
4:00am 3ft 6s 11 13 mph 1032.2mb 67f 58f
3:00am 3ft 6s 9 13 mph 1032.5mb 67f 58f
2:00am 3ft 6s 9 11 mph 1032.4mb 67f 58f
1:00am 2.5ft 8s 9 13 mph 1032.7mb 67f 57f
12:00am 2.5ft 9s 11 13 mph 1032.7mb 67f 57f
Sun 10/22 11:00pm 2.5ft 8s 11 13 mph 1032.8mb 67f 57f
10:00pm 2.5ft 9s 11 13 mph 1032.8mb 67f 57f
9:00pm 2.5ft 8s 11 13 mph 1032.8mb 66f 57f
8:00pm 2.5ft 10s 9 11 mph 1032.7mb 65f 57f
7:00pm 2.5ft 9s 7 9 mph 1032.5mb 64f 57f
6:00pm 2.5ft 9s 9 9 mph 1032.1mb 65f 58f
5:00pm 3ft 10s 7 11 mph 1031.8mb 65f 58f
4:00pm 2.5ft 10s 11 13 mph 1031.7mb 66f 58f
3:00pm 2.5ft 10s 9 11 mph 1031.5mb 67f 59f
2:00pm 2.5ft 9s 9 11 mph 1031.4mb 68f 59f
1:00pm 2.5ft 9s 9 11 mph 1031.5mb 68f 60f
12:00pm 2.5ft 10s 9 11 mph 1031.6mb 67f 60f
11:00am 2.5ft 10s 9 11 mph 1031.3mb 67f 60f
10:00am 2.5ft 10s 7 11 mph 1031mb 67f 60f
9:00am 2.5ft 10s 7 9 mph 1030.4mb 66f 60f
8:00am 2.5ft 10s 7 9 mph 1029.9mb 65f 60f
7:00am 3ft 10s 7 9 mph 1029.4mb 65f 60f
6:00am 3.5ft 10s 4 7 mph 1029.1mb 65f 59f
5:00am 3.5ft 10s 4 7 mph 1028.8mb 64f 59f
4:00am 3.5ft 5s 7 9 mph 1028.6mb 63f 59f
3:00am 3.5ft 5s 9 11 mph 1028.5mb 63f 59f
2:00am 3.5ft 5s 9 11 mph 1028.5mb 63f 59f
1:00am 4ft 6s 9 11 mph 1028.1mb 62f 59f
12:00am 4.5ft 6s 13 16 mph 1027.8mb 62f 59f
Sat 10/21 11:00pm 5ft 6s 18 18 mph 1027.4mb 62f 59f
10:00pm 5ft 6s 18 20 mph 1026.8mb 62f 59f
9:00pm 5ft 6s 18 22 mph 1026.3mb 63f 60f
8:00pm 5ft 6s 20 25 mph 1025.9mb 63f 60f
7:00pm 5.5ft 6s 22 25 mph 1025.1mb 65f 59f
6:00pm 5.5ft 6s 22 27 mph 1024.4mb 66f 59f
5:00pm 6ft 5s 22 27 mph 1024.1mb 66f 59f
4:00pm 6ft 6s 22 27 mph 1023.4mb 66f 58f
3:00pm 6ft 6s 20 25 mph 1023.2mb 66f 58f
2:00pm 6ft 6s 20 27 mph 1022.9mb 65f 57f
1:00pm 6.5ft 6s 20 22 mph 1022.7mb 65f 57f
12:00pm 6ft 6s 20 25 mph 1022.6mb 64f 57f
11:00am 6ft 6s 18 22 mph 1022.4mb 63f 57f
10:00am 6ft 7s 18 25 mph 1022.1mb 63f 56f
9:00am 6ft 6s 20 25 mph 1021.4mb 63f 56f
8:00am 5ft 6s 22 27 mph 1020.2mb 62f 56f
7:00am 5ft 6s 22 27 mph 1019.5mb 62f 56f
6:00am 5ft 6s 18 22 mph 1018.6mb 62f 57f
5:00am 5ft 6s 20 22 mph 1017.7mb 63f 58f
4:00am 5.5ft 6s 20 22 mph 1017.1mb 63f 59f
3:00am 6ft 6s 20 25 mph 1016.6mb 63f 60f
2:00am 6ft 6s 20 25 mph 1016mb 63f 61f
1:00am 6ft 5s 22 29 mph 1015.4mb 63f 61f
12:00am 6ft 6s 22 25 mph 1014.9mb 63f 62f
Fri 10/20 11:00pm 6ft 6s 20 25 mph 1014.3mb 63f 62f
10:00pm 6ft 7s 22 25 mph 1013.8mb 62f 61f
9:00pm 5ft 7s 22 29 mph 1012.9mb 62f 62f
8:00pm 5ft 6s 22 27 mph 1012.4mb 63f 62f
7:00pm 5ft 7s 22 25 mph 1011.6mb 63f 62f
6:00pm 4.5ft 8s 16 18 mph 1010.7mb 64f 62f
5:00pm 5ft 8s 11 13 mph 1010.8mb 64f 62f
4:00pm 5ft 7s 11 13 mph 1011mb 64f 61f
3:00pm 5.5ft 6s 16 18 mph 1011.1mb 64f 61f
2:00pm 5.5ft 7s 16 18 mph 1011.2mb 64f 62f
1:00pm 6ft 6s 13 16 mph 1012.1mb 64f 62f
12:00pm 5.5ft 7s 13 20 mph 1012.9mb 64f 62f
11:00am 6ft 7s 18 20 mph 1013.7mb 64f 62f
10:00am 6ft 6s 18 22 mph 1014.1mb 64f 62f
9:00am 6ft 6s 20 25 mph 1014.4mb 64f 63f
8:00am 5.5ft 7s 22 27 mph 1013.9mb 64f 63f
7:00am 5.5ft 6s 22 29 mph 1014.2mb 64f 63f
6:00am 5ft 6s 25 31 mph 1014.8mb 65f 64f
5:00am 5ft 5s 22 25 mph 1015.2mb 68f 65f
4:00am 5ft 5s 20 22 mph 1015.9mb 69f 65f
3:00am 4.5ft 4s 22 27 mph 1016.6mb 69f 66f
2:00am 3.5ft 4s 20 25 mph 1017.6mb 69f 66f
1:00am 3.5ft 4s 18 20 mph 1017.9mb 69f 65f
12:00am 3.5ft 8s 16 18 mph 1018.7mb 69f 65f
Thu 10/19 11:00pm 3.5ft 8s 13 16 mph 1019.9mb 69f 65f
10:00pm 3.5ft 9s 13 13 mph 1020.2mb 68f 64f
9:00pm 3.5ft 10s 13 16 mph 1020.7mb 67f 64f
8:00pm 3.5ft 9s 13 18 mph 1021.4mb 67f 65f
7:00pm 4ft 9s 13 18 mph 1021.9mb 67f 65f
6:00pm 3.5ft 9s 18 22 mph 1022.2mb 68f 65f
5:00pm 3.5ft 10s 16 20 mph 1023mb 68f 65f
4:00pm 3.5ft 9s 18 20 mph 1023.7mb 68f 65f
3:00pm 3.5ft 9s 16 20 mph 1024.2mb 67f 65f
2:00pm 3.5ft 9s 16 22 mph 1025mb 66f 64f